createdAt,value
2023-05-20T00:01:29.810Z,54.55
2023-05-20T00:04:15.344Z,55.37
2023-05-20T00:07:00.377Z,56.57
2023-05-20T00:09:45.723Z,56.21
2023-05-20T00:12:30.517Z,57.02
2023-05-20T00:15:15.975Z,56.84
2023-05-20T00:18:02.149Z,57.02
2023-05-20T00:20:47.153Z,57.76
2023-05-20T00:23:32.146Z,56.98
2023-05-20T00:26:17.176Z,56.91
2023-05-20T00:29:02.679Z,56.60
2023-05-20T00:31:47.946Z,56.05
2023-05-20T00:34:33.049Z,55.55
2023-05-20T00:37:18.525Z,55.38
2023-05-20T00:40:03.891Z,55.67
2023-05-20T00:42:49.322Z,56.75
2023-05-20T00:45:34.495Z,56.62
2023-05-20T00:48:21.497Z,57.74
2023-05-20T00:51:07.580Z,57.89
2023-05-20T00:53:53.148Z,57.14
2023-05-20T00:56:38.475Z,56.80
2023-05-20T00:59:24.224Z,57.22
2023-05-20T01:02:09.384Z,57.48
2023-05-20T01:04:56.881Z,57.68
2023-05-20T01:07:42.434Z,58.18
2023-05-20T01:10:30.448Z,57.78
2023-05-20T01:13:19.912Z,58.83
2023-05-20T01:16:05.632Z,58.28
2023-05-20T01:18:55.138Z,58.05
2023-05-20T01:21:42.450Z,58.08
2023-05-20T01:24:27.561Z,57.96
2023-05-20T01:27:13.427Z,58.67
2023-05-20T01:29:58.868Z,57.60
2023-05-20T01:32:58.534Z,57.07
2023-05-20T01:35:43.846Z,56.96
2023-05-20T01:38:29.648Z,57.71
2023-05-20T01:41:15.048Z,56.94
2023-05-20T01:44:01.876Z,58.42
2023-05-20T01:46:51.346Z,58.04
2023-05-20T01:49:36.606Z,58.69
2023-05-20T01:52:22.467Z,59.48
2023-05-20T01:55:07.710Z,58.43
2023-05-20T01:57:52.715Z,58.09
2023-05-20T02:00:37.933Z,59.13
2023-05-20T02:03:23.421Z,58.57
2023-05-20T02:06:08.251Z,58.04
2023-05-20T02:08:53.486Z,58.76
2023-05-20T02:11:38.288Z,57.85
2023-05-20T02:14:23.070Z,57.82
2023-05-20T02:17:07.975Z,57.97
2023-05-20T02:19:52.771Z,58.58
2023-05-20T02:22:37.910Z,58.41
2023-05-20T02:25:24.185Z,58.61
2023-05-20T02:28:11.016Z,58.31
2023-05-20T02:30:55.821Z,58.75
2023-05-20T02:33:41.011Z,58.73
2023-05-20T02:36:25.823Z,58.75
2023-05-20T02:39:11.104Z,59.27
2023-05-20T02:41:56.318Z,58.95
2023-05-20T02:44:41.791Z,59.48
2023-05-20T02:47:27.199Z,58.57
2023-05-20T02:50:12.218Z,59.43
2023-05-20T02:52:57.409Z,60.22
2023-05-20T02:55:42.575Z,60.28
2023-05-20T02:58:28.701Z,60.29
2023-05-20T03:01:13.945Z,59.86
2023-05-20T03:03:59.365Z,59.89
2023-05-20T03:06:46.413Z,60.64
2023-05-20T03:09:32.108Z,59.69
2023-05-20T03:12:17.381Z,58.36
2023-05-20T03:15:02.277Z,59.78
2023-05-20T03:17:47.275Z,60.40
2023-05-20T03:20:38.596Z,60.08
2023-05-20T03:23:23.465Z,60.34
2023-05-20T03:26:08.301Z,60.71
2023-05-20T03:28:53.208Z,62.21
2023-05-20T03:31:38.264Z,61.49
2023-05-20T03:34:23.370Z,60.98
2023-05-20T03:37:08.208Z,61.51
2023-05-20T03:39:53.101Z,60.68
2023-05-20T03:42:38.852Z,61.40
2023-05-20T03:45:23.683Z,61.76
2023-05-20T03:48:08.505Z,60.84
2023-05-20T03:50:53.996Z,61.20
2023-05-20T03:53:39.212Z,61.19
2023-05-20T03:56:24.519Z,60.61
2023-05-20T03:59:10.307Z,59.70
2023-05-20T04:01:56.947Z,60.94
2023-05-20T04:04:45.536Z,60.54
2023-05-20T04:07:30.694Z,60.11
2023-05-20T04:10:15.549Z,60.85
2023-05-20T04:13:00.571Z,61.32
2023-05-20T04:15:46.627Z,60.67
2023-05-20T04:18:31.800Z,60.10
2023-05-20T04:21:17.050Z,60.78
2023-05-20T04:24:02.013Z,61.76
2023-05-20T04:26:48.121Z,61.91
2023-05-20T04:29:34.205Z,62.60
2023-05-20T04:32:19.544Z,63.12
2023-05-20T04:35:09.876Z,62.63
2023-05-20T04:37:55.505Z,61.63
2023-05-20T04:40:41.657Z,62.06
2023-05-20T04:43:30.062Z,62.00
2023-05-20T04:46:16.851Z,61.78
2023-05-20T04:49:02.067Z,61.72
2023-05-20T04:51:50.543Z,62.29
2023-05-20T04:54:35.564Z,62.27
2023-05-20T04:57:21.392Z,62.10
2023-05-20T05:00:10.346Z,62.43
2023-05-20T05:02:55.837Z,62.00
2023-05-20T05:05:42.413Z,63.05
2023-05-20T05:08:27.545Z,63.41
2023-05-20T05:11:12.317Z,63.22
2023-05-20T05:13:57.153Z,62.67
2023-05-20T05:16:42.255Z,61.88
2023-05-20T05:19:27.183Z,63.41
2023-05-20T05:22:12.916Z,62.93
2023-05-20T05:24:58.814Z,62.70
2023-05-20T05:27:44.712Z,61.89
2023-05-20T05:30:30.270Z,62.83
2023-05-20T05:33:15.958Z,62.03
2023-05-20T05:36:03.006Z,61.81
2023-05-20T05:38:47.971Z,62.08
2023-05-20T05:41:33.805Z,61.78
2023-05-20T05:44:18.731Z,62.32
2023-05-20T05:47:03.819Z,62.11
2023-05-20T05:49:48.848Z,62.44
2023-05-20T05:52:33.645Z,61.80
2023-05-20T05:55:18.566Z,62.56
2023-05-20T05:58:03.450Z,62.31
2023-05-20T06:00:52.763Z,62.69
2023-05-20T06:03:38.706Z,62.63
2023-05-20T06:06:24.000Z,61.60
2023-05-20T06:09:08.844Z,61.88
2023-05-20T06:11:53.968Z,62.51
2023-05-20T06:14:39.012Z,62.17
2023-05-20T06:17:24.430Z,61.88
2023-05-20T06:20:09.541Z,62.28
2023-05-20T06:22:54.789Z,61.60
2023-05-20T06:25:39.779Z,61.45
2023-05-20T06:28:25.662Z,60.92
2023-05-20T06:31:10.600Z,60.14
2023-05-20T06:33:56.020Z,60.05
2023-05-20T06:36:41.710Z,60.81
2023-05-20T06:39:26.808Z,59.71
2023-05-20T06:42:12.258Z,59.91
2023-05-20T06:44:57.204Z,59.62
2023-05-20T06:47:42.840Z,59.00
2023-05-20T06:50:28.399Z,60.22
2023-05-20T06:53:13.925Z,59.39
2023-05-20T06:55:58.960Z,60.20
2023-05-20T06:58:44.680Z,59.11
2023-05-20T07:01:29.558Z,58.42
2023-05-20T07:04:14.662Z,57.88
2023-05-20T07:06:59.911Z,58.30
2023-05-20T07:09:45.662Z,57.87
2023-05-20T07:12:30.761Z,58.19
2023-05-20T07:15:15.860Z,58.65
2023-05-20T07:18:01.008Z,58.30
2023-05-20T07:20:46.972Z,58.37
2023-05-20T07:23:34.215Z,57.91
2023-05-20T07:26:19.672Z,57.71
2023-05-20T07:29:05.314Z,57.89
2023-05-20T07:31:50.074Z,57.69
2023-05-20T07:34:35.757Z,57.25
2023-05-20T07:37:20.762Z,55.10
2023-05-20T07:40:07.946Z,55.70
2023-05-20T07:42:52.662Z,55.46
2023-05-20T07:45:37.671Z,56.41
2023-05-20T07:48:23.040Z,57.14
2023-05-20T07:51:07.850Z,56.64
2023-05-20T07:53:52.592Z,56.29
2023-05-20T07:56:37.721Z,56.41
2023-05-20T07:59:22.472Z,56.36
2023-05-20T08:02:08.496Z,56.26
2023-05-20T08:04:53.738Z,57.18
2023-05-20T08:07:38.537Z,57.61
2023-05-20T08:10:23.848Z,57.27
2023-05-20T08:13:08.745Z,57.92
2023-05-20T08:15:54.757Z,57.47
2023-05-20T08:18:40.087Z,57.25
2023-05-20T08:21:25.624Z,57.29
2023-05-20T08:24:10.400Z,57.53
2023-05-20T08:26:55.205Z,57.63
2023-05-20T08:29:40.102Z,56.24
2023-05-20T08:32:25.016Z,54.59
2023-05-20T08:35:10.157Z,55.25
2023-05-20T08:37:54.977Z,54.17
2023-05-20T08:40:42.475Z,53.68
2023-05-20T08:43:27.421Z,54.00
2023-05-20T08:46:12.790Z,53.79
2023-05-20T08:48:59.244Z,54.89
2023-05-20T08:51:46.500Z,55.04
2023-05-20T08:54:46.036Z,55.28
2023-05-20T08:57:31.249Z,55.59
2023-05-20T09:00:17.269Z,55.99
2023-05-20T09:03:03.108Z,54.48
2023-05-20T09:05:48.474Z,54.67
2023-05-20T09:08:34.074Z,54.37
2023-05-20T09:11:22.960Z,53.84
2023-05-20T09:14:08.808Z,53.83
2023-05-20T09:16:54.142Z,53.97
2023-05-20T09:19:39.108Z,54.27
2023-05-20T09:22:25.423Z,54.23
2023-05-20T09:25:12.307Z,54.74
2023-05-20T09:27:57.346Z,55.44
2023-05-20T09:30:44.491Z,55.64
2023-05-20T09:33:32.398Z,56.16
2023-05-20T09:36:17.723Z,56.73
2023-05-20T09:39:05.498Z,55.43
2023-05-20T09:42:09.427Z,55.38
2023-05-20T09:44:55.287Z,55.06
2023-05-20T09:47:41.677Z,55.26
2023-05-20T09:50:28.700Z,54.54
2023-05-20T09:53:14.523Z,54.75
2023-05-20T09:55:59.653Z,53.89
2023-05-20T09:58:45.691Z,54.07
2023-05-20T10:01:31.110Z,53.91
2023-05-20T10:04:18.858Z,54.33
2023-05-20T10:07:42.261Z,55.47
2023-05-20T10:10:45.856Z,56.00
2023-05-20T10:14:06.145Z,55.53
2023-05-20T10:17:07.779Z,56.60
2023-05-20T10:19:59.545Z,57.26
2023-05-20T10:22:57.129Z,57.75
2023-05-20T10:25:52.621Z,57.58
2023-05-20T10:28:41.112Z,57.38
2023-05-20T10:31:26.312Z,57.16
2023-05-20T10:34:17.476Z,56.61
2023-05-20T10:37:02.481Z,56.95
2023-05-20T10:39:49.272Z,56.93
2023-05-20T10:42:34.373Z,56.49
2023-05-20T10:45:29.666Z,56.00
2023-05-20T10:48:42.033Z,55.51
2023-05-20T10:51:29.565Z,57.04
2023-05-20T10:54:15.238Z,56.85
2023-05-20T10:57:00.656Z,56.71
2023-05-20T10:59:47.814Z,56.57
2023-05-20T11:02:34.126Z,56.56
2023-05-20T11:05:21.000Z,57.16
2023-05-20T11:08:20.649Z,57.60
2023-05-20T11:11:15.315Z,56.50
2023-05-20T11:14:00.742Z,57.15
2023-05-20T11:16:46.671Z,57.18
2023-05-20T11:19:31.844Z,57.70
2023-05-20T11:22:17.536Z,58.52
2023-05-20T11:25:07.205Z,57.74
2023-05-20T11:27:52.008Z,56.92
2023-05-20T11:30:39.655Z,57.47
2023-05-20T11:33:27.274Z,56.72
2023-05-20T11:36:26.863Z,57.42
2023-05-20T11:39:14.779Z,57.15
2023-05-20T11:41:59.801Z,56.90
2023-05-20T11:44:48.434Z,57.06
2023-05-20T11:47:33.967Z,56.68
2023-05-20T11:50:19.103Z,56.66
2023-05-20T11:53:06.309Z,55.77
2023-05-20T11:55:55.307Z,56.36
2023-05-20T11:58:40.147Z,56.67
2023-05-20T12:01:25.496Z,56.75
2023-05-20T12:04:11.229Z,56.37
2023-05-20T12:06:56.477Z,56.48
2023-05-20T12:09:41.406Z,55.88
2023-05-20T12:12:26.902Z,56.30
2023-05-20T12:15:12.328Z,55.73
2023-05-20T12:17:57.529Z,55.62
2023-05-20T12:20:42.745Z,56.28
2023-05-20T12:23:30.980Z,55.26
2023-05-20T12:26:16.223Z,55.13
2023-05-20T12:29:01.644Z,55.05
2023-05-20T12:31:47.880Z,54.67
2023-05-20T12:34:36.157Z,54.38
2023-05-20T12:37:22.264Z,54.26
2023-05-20T12:40:08.846Z,53.41
2023-05-20T12:42:53.829Z,54.05
2023-05-20T12:45:38.759Z,54.14
2023-05-20T12:48:23.529Z,52.92
2023-05-20T12:51:08.472Z,51.62
2023-05-20T12:53:53.243Z,52.18
2023-05-20T12:56:39.250Z,52.11
2023-05-20T12:59:24.017Z,51.61
2023-05-20T13:02:10.652Z,51.86
2023-05-20T13:04:56.275Z,51.70
2023-05-20T13:07:41.687Z,52.18
2023-05-20T13:10:26.778Z,50.72
2023-05-20T13:13:14.430Z,50.71
2023-05-20T13:15:59.695Z,51.29
2023-05-20T13:18:45.266Z,52.74
2023-05-20T13:21:32.795Z,54.32
2023-05-20T13:24:18.804Z,54.46
2023-05-20T13:27:04.627Z,54.96
2023-05-20T13:29:50.125Z,53.26
2023-05-20T13:32:35.192Z,50.69
2023-05-20T13:35:21.182Z,48.78
2023-05-20T13:38:06.298Z,48.84
2023-05-20T13:40:51.508Z,48.86
2023-05-20T13:43:37.356Z,50.47
2023-05-20T13:46:26.112Z,51.46
2023-05-20T13:49:11.304Z,51.07
2023-05-20T13:51:56.425Z,52.51
2023-05-20T13:54:42.951Z,52.49
2023-05-20T13:57:27.851Z,53.28
2023-05-20T14:00:13.995Z,53.50
2023-05-20T14:03:00.675Z,53.44
2023-05-20T14:05:46.276Z,53.43
2023-05-20T14:08:31.288Z,51.48
2023-05-20T14:11:16.774Z,49.51
2023-05-20T14:14:02.343Z,48.51
2023-05-20T14:16:47.896Z,47.58
2023-05-20T14:19:33.009Z,47.37
2023-05-20T14:22:19.846Z,47.04
2023-05-20T14:25:05.814Z,47.48
2023-05-20T14:27:51.393Z,48.66
2023-05-20T14:30:37.143Z,49.30
2023-05-20T14:33:22.339Z,49.97
2023-05-20T14:36:09.341Z,49.79
2023-05-20T14:38:54.133Z,48.38
2023-05-20T14:41:39.727Z,47.65
2023-05-20T14:44:24.777Z,47.32
2023-05-20T14:47:10.836Z,46.29
2023-05-20T14:49:56.840Z,47.43
2023-05-20T14:52:42.262Z,46.48
2023-05-20T14:55:27.740Z,46.25
2023-05-20T14:58:12.723Z,46.43
2023-05-20T15:00:58.008Z,45.70
2023-05-20T15:03:43.296Z,47.02
2023-05-20T15:06:28.778Z,47.91
2023-05-20T15:09:13.847Z,47.51
2023-05-20T15:11:58.681Z,49.05
2023-05-20T15:14:43.527Z,50.01
2023-05-20T15:17:29.368Z,49.73
2023-05-20T15:20:14.850Z,49.92
2023-05-20T15:23:01.061Z,50.52
2023-05-20T15:25:46.840Z,49.32
2023-05-20T15:28:31.905Z,50.29
2023-05-20T15:31:17.219Z,49.62
2023-05-20T15:34:02.636Z,49.05
2023-05-20T15:36:48.371Z,49.71
2023-05-20T15:39:37.357Z,49.63
2023-05-20T15:42:22.380Z,49.64
2023-05-20T15:45:09.095Z,50.22
2023-05-20T15:47:54.694Z,50.03
2023-05-20T15:50:40.354Z,49.57
2023-05-20T15:53:25.427Z,49.37
2023-05-20T15:56:12.805Z,48.86
2023-05-20T15:58:57.717Z,49.54
2023-05-20T16:01:42.942Z,50.38
2023-05-20T16:04:28.055Z,50.65
2023-05-20T16:07:13.429Z,50.59
2023-05-20T16:09:58.361Z,50.23
2023-05-20T16:12:44.538Z,49.68
2023-05-20T16:15:35.833Z,49.45
2023-05-20T16:18:21.154Z,49.28
2023-05-20T16:21:08.347Z,49.72
2023-05-20T16:23:53.507Z,50.11
2023-05-20T16:26:38.377Z,50.71
2023-05-20T16:29:23.298Z,50.95
2023-05-20T16:32:08.646Z,51.90
2023-05-20T16:34:54.659Z,51.64
2023-05-20T16:37:39.788Z,51.77
2023-05-20T16:40:24.765Z,51.11
2023-05-20T16:43:10.595Z,51.27
2023-05-20T16:45:56.116Z,52.24
2023-05-20T16:48:42.729Z,52.84
2023-05-20T16:51:27.741Z,52.60
2023-05-20T16:54:13.025Z,52.73
2023-05-20T16:56:58.183Z,52.41
2023-05-20T16:59:43.153Z,53.19
2023-05-20T17:02:29.830Z,53.20
2023-05-20T17:05:16.776Z,53.41
2023-05-20T17:08:04.600Z,53.16
2023-05-20T17:10:52.444Z,53.59
2023-05-20T17:13:42.056Z,54.88
2023-05-20T17:16:27.374Z,53.93
2023-05-20T17:19:12.163Z,54.73
2023-05-20T17:21:58.411Z,54.84
2023-05-20T17:24:44.893Z,55.17
2023-05-20T17:27:30.205Z,55.56
2023-05-20T17:30:15.819Z,56.15
2023-05-20T17:33:01.467Z,55.64
2023-05-20T17:35:47.118Z,55.15
2023-05-20T17:38:32.678Z,55.42
2023-05-20T17:41:23.864Z,55.44
2023-05-20T17:44:09.504Z,55.69
2023-05-20T17:46:54.198Z,55.98
2023-05-20T17:49:39.594Z,55.97
2023-05-20T17:52:24.629Z,56.66
2023-05-20T17:55:10.113Z,56.67
2023-05-20T17:57:58.060Z,56.60
2023-05-20T18:00:42.927Z,57.06
2023-05-20T18:03:29.041Z,57.36
2023-05-20T18:06:14.197Z,57.53
2023-05-20T18:08:59.922Z,57.62
2023-05-20T18:11:44.947Z,58.06
2023-05-20T18:14:32.593Z,58.11
2023-05-20T18:17:17.901Z,58.22
2023-05-20T18:20:04.421Z,58.60
2023-05-20T18:22:52.158Z,58.39
2023-05-20T18:25:38.320Z,58.17
2023-05-20T18:28:24.370Z,58.51
2023-05-20T18:31:09.194Z,58.39
2023-05-20T18:33:54.438Z,58.70
2023-05-20T18:36:40.760Z,59.28
2023-05-20T18:39:26.650Z,59.62
2023-05-20T18:42:11.605Z,60.47
2023-05-20T18:44:56.805Z,60.06
2023-05-20T18:47:42.105Z,60.66
2023-05-20T18:50:27.228Z,60.47
2023-05-20T18:53:13.440Z,61.30
2023-05-20T18:56:02.882Z,61.66
2023-05-20T18:58:49.333Z,61.79
2023-05-20T19:01:36.860Z,61.97
2023-05-20T19:04:22.677Z,62.33
2023-05-20T19:07:10.384Z,62.54
2023-05-20T19:09:56.724Z,62.56
2023-05-20T19:12:43.789Z,62.22
2023-05-20T19:15:30.112Z,62.88
2023-05-20T19:18:15.656Z,63.04
2023-05-20T19:21:00.518Z,63.12
2023-05-20T19:23:46.837Z,63.11
2023-05-20T19:26:33.493Z,63.27
2023-05-20T19:29:19.378Z,63.39
2023-05-20T19:32:06.205Z,63.59
2023-05-20T19:34:52.244Z,63.38
2023-05-20T19:37:37.382Z,63.73
2023-05-20T19:40:22.663Z,63.52
2023-05-20T19:43:07.948Z,63.70
2023-05-20T19:45:52.839Z,64.21
2023-05-20T19:48:38.160Z,64.15
2023-05-20T19:51:23.197Z,64.65
2023-05-20T19:54:08.005Z,64.50
2023-05-20T19:56:52.807Z,64.89
2023-05-20T19:59:38.045Z,64.64
2023-05-20T20:02:23.812Z,65.36
2023-05-20T20:05:09.794Z,65.16
2023-05-20T20:07:55.239Z,65.03
2023-05-20T20:10:40.401Z,65.00
2023-05-20T20:13:25.603Z,64.96
2023-05-20T20:16:10.930Z,65.30
2023-05-20T20:18:56.237Z,65.25
2023-05-20T20:21:42.902Z,65.27
2023-05-20T20:24:28.790Z,65.32
2023-05-20T20:27:13.912Z,65.84
2023-05-20T20:30:00.635Z,66.52
2023-05-20T20:32:48.463Z,65.78
2023-05-20T20:35:36.691Z,65.70
2023-05-20T20:38:22.312Z,66.52
2023-05-20T20:41:09.378Z,66.12
2023-05-20T20:43:55.608Z,66.50
2023-05-20T20:46:42.598Z,66.12
2023-05-20T20:49:28.747Z,66.90
2023-05-20T20:52:14.163Z,66.24
2023-05-20T20:55:02.167Z,66.78
2023-05-20T20:57:47.918Z,66.95
2023-05-20T21:00:33.738Z,66.58
2023-05-20T21:03:18.935Z,67.00
2023-05-20T21:06:04.183Z,66.75
2023-05-20T21:08:49.273Z,67.56
2023-05-20T21:11:38.141Z,67.84
2023-05-20T21:14:25.837Z,67.34
2023-05-20T21:17:12.060Z,66.70
2023-05-20T21:19:58.468Z,67.17
2023-05-20T21:22:44.708Z,67.21
2023-05-20T21:25:29.964Z,67.45
2023-05-20T21:28:16.996Z,67.03
2023-05-20T21:31:01.830Z,67.60
2023-05-20T21:33:48.106Z,67.53
2023-05-20T21:36:33.396Z,67.56
2023-05-20T21:39:18.648Z,68.11
2023-05-20T21:42:06.601Z,67.45
2023-05-20T21:44:54.900Z,67.52
2023-05-20T21:47:40.562Z,68.14
2023-05-20T21:50:25.634Z,68.53
2023-05-20T21:53:10.365Z,68.33
2023-05-20T21:55:55.400Z,68.77
2023-05-20T21:58:42.105Z,68.61
2023-05-20T22:01:27.542Z,68.56
2023-05-20T22:04:13.335Z,68.17
2023-05-20T22:06:58.471Z,68.66
2023-05-20T22:09:43.748Z,68.42
2023-05-20T22:12:29.193Z,68.66
2023-05-20T22:15:14.180Z,69.08
2023-05-20T22:17:59.113Z,68.39
2023-05-20T22:20:45.219Z,69.21
2023-05-20T22:23:30.563Z,68.83
2023-05-20T22:26:19.089Z,69.66
2023-05-20T22:29:04.424Z,69.02
2023-05-20T22:31:49.487Z,69.88
2023-05-20T22:34:34.799Z,69.76
2023-05-20T22:37:21.022Z,69.35
2023-05-20T22:40:07.136Z,70.23
2023-05-20T22:42:53.900Z,70.89
2023-05-20T22:45:40.293Z,71.03
2023-05-20T22:48:25.579Z,69.95
2023-05-20T22:51:11.890Z,67.61
2023-05-20T22:53:56.625Z,71.42
2023-05-20T22:56:42.285Z,72.07
2023-05-20T22:59:30.852Z,72.54
2023-05-20T23:02:15.912Z,72.39
2023-05-20T23:05:02.446Z,72.95
2023-05-20T23:07:47.345Z,72.53
2023-05-20T23:10:32.113Z,73.01
2023-05-20T23:13:17.067Z,73.42
2023-05-20T23:16:02.045Z,74.05
2023-05-20T23:18:47.523Z,73.71
2023-05-20T23:21:32.589Z,73.98
2023-05-20T23:24:17.885Z,74.06
2023-05-20T23:27:04.389Z,74.01
2023-05-20T23:29:49.227Z,74.94
2023-05-20T23:32:34.131Z,74.46
2023-05-20T23:35:19.707Z,74.08
2023-05-20T23:38:04.921Z,73.54
2023-05-20T23:40:49.866Z,74.66
2023-05-20T23:43:34.702Z,74.66
2023-05-20T23:46:20.913Z,72.64
2023-05-20T23:49:06.608Z,74.30
2023-05-20T23:51:51.690Z,74.11
2023-05-20T23:54:36.631Z,75.11
2023-05-20T23:57:22.453Z,74.81
